sensor_id;sensor_type;location;lat;lon;timestamp;temperature;humidity
3504;DHT22;1766;53.490;10.174;2023-05-07T00:01:25;16.50;45.80
3504;DHT22;1766;53.490;10.174;2023-05-07T00:03:27;16.50;45.70
3504;DHT22;1766;53.490;10.174;2023-05-07T00:05:29;16.50;45.70
3504;DHT22;1766;53.490;10.174;2023-05-07T00:07:31;16.40;45.60
3504;DHT22;1766;53.490;10.174;2023-05-07T00:09:33;16.50;45.70
3504;DHT22;1766;53.490;10.174;2023-05-07T00:11:35;16.50;45.80
3504;DHT22;1766;53.490;10.174;2023-05-07T00:13:37;16.50;45.80
3504;DHT22;1766;53.490;10.174;2023-05-07T00:15:40;16.50;45.80
3504;DHT22;1766;53.490;10.174;2023-05-07T00:17:41;16.50;45.80
3504;DHT22;1766;53.490;10.174;2023-05-07T00:19:43;16.50;45.80
3504;DHT22;1766;53.490;10.174;2023-05-07T00:21:45;16.50;45.90
3504;DHT22;1766;53.490;10.174;2023-05-07T00:23:47;16.50;45.90
3504;DHT22;1766;53.490;10.174;2023-05-07T00:25:49;16.50;45.90
3504;DHT22;1766;53.490;10.174;2023-05-07T00:27:50;16.50;45.90
3504;DHT22;1766;53.490;10.174;2023-05-07T00:29:52;16.50;45.90
3504;DHT22;1766;53.490;10.174;2023-05-07T00:31:55;16.50;45.80
3504;DHT22;1766;53.490;10.174;2023-05-07T00:33:57;16.50;45.80
3504;DHT22;1766;53.490;10.174;2023-05-07T00:35:59;16.50;45.90
3504;DHT22;1766;53.490;10.174;2023-05-07T00:38:02;16.50;46.00
3504;DHT22;1766;53.490;10.174;2023-05-07T00:40:04;16.50;45.90
3504;DHT22;1766;53.490;10.174;2023-05-07T00:42:08;16.50;45.90
3504;DHT22;1766;53.490;10.174;2023-05-07T00:44:10;16.50;45.80
3504;DHT22;1766;53.490;10.174;2023-05-07T00:46:12;16.50;45.90
3504;DHT22;1766;53.490;10.174;2023-05-07T00:48:16;16.50;45.90
3504;DHT22;1766;53.490;10.174;2023-05-07T00:50:18;16.50;45.80
3504;DHT22;1766;53.490;10.174;2023-05-07T00:52:21;16.50;45.90
3504;DHT22;1766;53.490;10.174;2023-05-07T00:54:25;16.50;46.00
3504;DHT22;1766;53.490;10.174;2023-05-07T00:56:27;16.60;45.90
3504;DHT22;1766;53.490;10.174;2023-05-07T00:58:29;16.50;45.80
3504;DHT22;1766;53.490;10.174;2023-05-07T01:00:31;16.50;45.80
3504;DHT22;1766;53.490;10.174;2023-05-07T01:02:33;16.50;45.90
3504;DHT22;1766;53.490;10.174;2023-05-07T01:04:36;16.50;46.00
3504;DHT22;1766;53.490;10.174;2023-05-07T01:06:38;16.40;45.80
3504;DHT22;1766;53.490;10.174;2023-05-07T01:08:41;16.40;45.80
3504;DHT22;1766;53.490;10.174;2023-05-07T01:10:44;16.40;45.90
3504;DHT22;1766;53.490;10.174;2023-05-07T01:12:46;16.40;45.90
3504;DHT22;1766;53.490;10.174;2023-05-07T01:14:49;16.40;45.90
3504;DHT22;1766;53.490;10.174;2023-05-07T01:16:52;16.50;45.90
3504;DHT22;1766;53.490;10.174;2023-05-07T01:18:55;16.50;45.90
3504;DHT22;1766;53.490;10.174;2023-05-07T01:20:59;16.50;45.80
3504;DHT22;1766;53.490;10.174;2023-05-07T01:23:03;16.50;45.80
3504;DHT22;1766;53.490;10.174;2023-05-07T01:25:06;16.50;45.70
3504;DHT22;1766;53.490;10.174;2023-05-07T01:27:22;16.50;45.70
3504;DHT22;1766;53.490;10.174;2023-05-07T01:29:23;16.50;45.60
3504;DHT22;1766;53.490;10.174;2023-05-07T01:31:25;16.50;45.70
3504;DHT22;1766;53.490;10.174;2023-05-07T01:33:30;16.50;45.60
3504;DHT22;1766;53.490;10.174;2023-05-07T01:35:37;16.50;45.60
3504;DHT22;1766;53.490;10.174;2023-05-07T01:37:42;16.50;45.60
3504;DHT22;1766;53.490;10.174;2023-05-07T01:39:46;16.50;45.50
3504;DHT22;1766;53.490;10.174;2023-05-07T01:41:49;16.50;45.50
3504;DHT22;1766;53.490;10.174;2023-05-07T01:43:52;16.50;45.40
3504;DHT22;1766;53.490;10.174;2023-05-07T01:45:54;16.50;45.40
3504;DHT22;1766;53.490;10.174;2023-05-07T01:47:58;16.50;45.40
3504;DHT22;1766;53.490;10.174;2023-05-07T01:50:00;16.50;45.50
3504;DHT22;1766;53.490;10.174;2023-05-07T01:52:02;16.50;45.50
3504;DHT22;1766;53.490;10.174;2023-05-07T01:54:04;16.50;45.50
3504;DHT22;1766;53.490;10.174;2023-05-07T01:56:08;16.50;45.50
3504;DHT22;1766;53.490;10.174;2023-05-07T01:58:10;16.50;45.40
3504;DHT22;1766;53.490;10.174;2023-05-07T02:02:13;16.40;45.40
3504;DHT22;1766;53.490;10.174;2023-05-07T02:04:15;16.50;45.40
3504;DHT22;1766;53.490;10.174;2023-05-07T02:06:17;16.50;45.40
3504;DHT22;1766;53.490;10.174;2023-05-07T02:08:19;16.50;45.40
3504;DHT22;1766;53.490;10.174;2023-05-07T02:10:21;16.50;45.30
3504;DHT22;1766;53.490;10.174;2023-05-07T02:12:35;16.50;45.30
3504;DHT22;1766;53.490;10.174;2023-05-07T02:14:37;16.50;45.30
3504;DHT22;1766;53.490;10.174;2023-05-07T02:16:38;16.50;45.40
3504;DHT22;1766;53.490;10.174;2023-05-07T02:18:40;16.40;45.40
3504;DHT22;1766;53.490;10.174;2023-05-07T02:20:42;16.40;45.40
3504;DHT22;1766;53.490;10.174;2023-05-07T02:22:44;16.40;45.40
3504;DHT22;1766;53.490;10.174;2023-05-07T02:24:46;16.40;45.50
3504;DHT22;1766;53.490;10.174;2023-05-07T02:26:47;16.40;45.40
3504;DHT22;1766;53.490;10.174;2023-05-07T02:28:50;16.50;45.50
3504;DHT22;1766;53.490;10.174;2023-05-07T02:30:52;16.40;45.40
3504;DHT22;1766;53.490;10.174;2023-05-07T02:32:54;16.40;45.50
3504;DHT22;1766;53.490;10.174;2023-05-07T02:34:56;16.30;45.50
3504;DHT22;1766;53.490;10.174;2023-05-07T02:36:58;16.30;45.50
3504;DHT22;1766;53.490;10.174;2023-05-07T02:39:00;16.30;45.50
3504;DHT22;1766;53.490;10.174;2023-05-07T02:41:03;16.30;46.20
3504;DHT22;1766;53.490;10.174;2023-05-07T02:43:05;16.40;45.70
3504;DHT22;1766;53.490;10.174;2023-05-07T02:45:09;16.40;45.70
3504;DHT22;1766;53.490;10.174;2023-05-07T02:47:11;16.30;45.70
3504;DHT22;1766;53.490;10.174;2023-05-07T02:49:13;16.40;45.60
3504;DHT22;1766;53.490;10.174;2023-05-07T02:51:16;16.40;45.70
3504;DHT22;1766;53.490;10.174;2023-05-07T02:53:18;16.30;45.60
3504;DHT22;1766;53.490;10.174;2023-05-07T02:55:20;16.30;45.60
3504;DHT22;1766;53.490;10.174;2023-05-07T02:57:22;16.40;45.70
3504;DHT22;1766;53.490;10.174;2023-05-07T02:59:24;16.40;45.60
3504;DHT22;1766;53.490;10.174;2023-05-07T03:01:27;16.40;45.70
3504;DHT22;1766;53.490;10.174;2023-05-07T03:03:29;16.30;45.60
3504;DHT22;1766;53.490;10.174;2023-05-07T03:05:31;16.30;45.60
3504;DHT22;1766;53.490;10.174;2023-05-07T03:07:33;16.30;45.70
3504;DHT22;1766;53.490;10.174;2023-05-07T03:09:35;16.30;45.70
3504;DHT22;1766;53.490;10.174;2023-05-07T03:11:36;16.40;45.80
3504;DHT22;1766;53.490;10.174;2023-05-07T03:13:38;16.30;45.70
3504;DHT22;1766;53.490;10.174;2023-05-07T03:15:40;16.40;45.80
3504;DHT22;1766;53.490;10.174;2023-05-07T03:17:43;16.40;45.80
3504;DHT22;1766;53.490;10.174;2023-05-07T03:19:45;16.30;45.70
3504;DHT22;1766;53.490;10.174;2023-05-07T03:21:46;16.40;45.80
3504;DHT22;1766;53.490;10.174;2023-05-07T03:23:48;16.40;45.80
3504;DHT22;1766;53.490;10.174;2023-05-07T03:25:50;16.40;45.80
3504;DHT22;1766;53.490;10.174;2023-05-07T03:27:52;16.30;45.70
3504;DHT22;1766;53.490;10.174;2023-05-07T03:29:53;16.30;45.70
3504;DHT22;1766;53.490;10.174;2023-05-07T03:31:56;16.30;45.80
3504;DHT22;1766;53.490;10.174;2023-05-07T03:33:59;16.30;45.80
3504;DHT22;1766;53.490;10.174;2023-05-07T03:36:01;16.30;45.80
3504;DHT22;1766;53.490;10.174;2023-05-07T03:38:03;16.30;45.80
3504;DHT22;1766;53.490;10.174;2023-05-07T03:40:05;16.40;45.80
3504;DHT22;1766;53.490;10.174;2023-05-07T03:42:10;16.30;45.80
3504;DHT22;1766;53.490;10.174;2023-05-07T03:44:12;16.30;45.70
3504;DHT22;1766;53.490;10.174;2023-05-07T03:46:14;16.40;45.80
3504;DHT22;1766;53.490;10.174;2023-05-07T03:48:16;16.30;45.70
3504;DHT22;1766;53.490;10.174;2023-05-07T03:50:19;16.30;45.60
3504;DHT22;1766;53.490;10.174;2023-05-07T03:52:21;16.40;45.60
3504;DHT22;1766;53.490;10.174;2023-05-07T03:54:26;16.40;45.50
3504;DHT22;1766;53.490;10.174;2023-05-07T03:56:28;16.40;45.50
3504;DHT22;1766;53.490;10.174;2023-05-07T03:58:29;16.40;46.10
3504;DHT22;1766;53.490;10.174;2023-05-07T04:00:31;16.50;45.50
3504;DHT22;1766;53.490;10.174;2023-05-07T04:02:34;16.30;45.40
3504;DHT22;1766;53.490;10.174;2023-05-07T04:04:36;16.40;45.50
3504;DHT22;1766;53.490;10.174;2023-05-07T04:06:39;16.40;45.50
3504;DHT22;1766;53.490;10.174;2023-05-07T04:08:41;16.30;45.40
3504;DHT22;1766;53.490;10.174;2023-05-07T04:10:43;16.40;45.40
3504;DHT22;1766;53.490;10.174;2023-05-07T04:12:45;16.40;45.40
3504;DHT22;1766;53.490;10.174;2023-05-07T04:14:46;16.50;45.40
3504;DHT22;1766;53.490;10.174;2023-05-07T04:16:48;16.50;45.40
3504;DHT22;1766;53.490;10.174;2023-05-07T04:18:50;16.50;45.40
3504;DHT22;1766;53.490;10.174;2023-05-07T04:20:51;16.50;45.40
3504;DHT22;1766;53.490;10.174;2023-05-07T04:22:54;16.40;45.30
3504;DHT22;1766;53.490;10.174;2023-05-07T04:24:56;16.40;45.30
3504;DHT22;1766;53.490;10.174;2023-05-07T04:26:58;16.40;45.30
3504;DHT22;1766;53.490;10.174;2023-05-07T04:29:00;16.50;45.40
3504;DHT22;1766;53.490;10.174;2023-05-07T04:31:02;16.40;45.30
3504;DHT22;1766;53.490;10.174;2023-05-07T04:33:04;16.40;45.30
3504;DHT22;1766;53.490;10.174;2023-05-07T04:35:07;16.40;45.30
3504;DHT22;1766;53.490;10.174;2023-05-07T04:37:09;16.50;45.30
3504;DHT22;1766;53.490;10.174;2023-05-07T04:39:12;16.50;45.30
3504;DHT22;1766;53.490;10.174;2023-05-07T04:41:14;16.50;45.30
3504;DHT22;1766;53.490;10.174;2023-05-07T04:43:17;16.50;45.30
3504;DHT22;1766;53.490;10.174;2023-05-07T04:45:18;16.50;45.20
3504;DHT22;1766;53.490;10.174;2023-05-07T04:47:21;16.40;45.20
3504;DHT22;1766;53.490;10.174;2023-05-07T04:49:23;16.50;45.20
3504;DHT22;1766;53.490;10.174;2023-05-07T04:51:25;16.50;45.10
3504;DHT22;1766;53.490;10.174;2023-05-07T04:53:26;16.50;45.10
3504;DHT22;1766;53.490;10.174;2023-05-07T04:55:29;16.50;45.00
3504;DHT22;1766;53.490;10.174;2023-05-07T04:57:31;16.50;45.00
3504;DHT22;1766;53.490;10.174;2023-05-07T04:59:33;16.60;45.10
3504;DHT22;1766;53.490;10.174;2023-05-07T05:01:35;16.60;45.10
3504;DHT22;1766;53.490;10.174;2023-05-07T05:03:37;16.60;45.00
3504;DHT22;1766;53.490;10.174;2023-05-07T05:05:39;16.60;45.00
3504;DHT22;1766;53.490;10.174;2023-05-07T05:07:41;16.60;44.90
3504;DHT22;1766;53.490;10.174;2023-05-07T05:09:43;16.60;44.90
3504;DHT22;1766;53.490;10.174;2023-05-07T05:11:46;16.60;44.80
3504;DHT22;1766;53.490;10.174;2023-05-07T05:13:48;16.70;44.90
3504;DHT22;1766;53.490;10.174;2023-05-07T05:15:50;16.70;45.50
3504;DHT22;1766;53.490;10.174;2023-05-07T05:17:52;16.70;44.90
3504;DHT22;1766;53.490;10.174;2023-05-07T05:19:53;16.80;44.80
3504;DHT22;1766;53.490;10.174;2023-05-07T05:21:55;16.80;44.80
3504;DHT22;1766;53.490;10.174;2023-05-07T05:23:57;16.80;44.70
3504;DHT22;1766;53.490;10.174;2023-05-07T05:25:59;16.80;44.90
3504;DHT22;1766;53.490;10.174;2023-05-07T05:28:02;16.80;44.80
3504;DHT22;1766;53.490;10.174;2023-05-07T05:30:05;16.80;44.80
3504;DHT22;1766;53.490;10.174;2023-05-07T05:32:07;16.80;44.80
3504;DHT22;1766;53.490;10.174;2023-05-07T05:34:09;16.80;44.70
3504;DHT22;1766;53.490;10.174;2023-05-07T05:36:11;16.90;44.80
3504;DHT22;1766;53.490;10.174;2023-05-07T05:38:13;16.90;44.80
3504;DHT22;1766;53.490;10.174;2023-05-07T05:40:15;16.90;44.70
3504;DHT22;1766;53.490;10.174;2023-05-07T05:42:20;16.90;44.70
3504;DHT22;1766;53.490;10.174;2023-05-07T05:44:23;17.00;44.70
3504;DHT22;1766;53.490;10.174;2023-05-07T05:46:25;17.00;44.60
3504;DHT22;1766;53.490;10.174;2023-05-07T05:48:28;17.10;44.60
3504;DHT22;1766;53.490;10.174;2023-05-07T05:50:30;17.10;44.60
3504;DHT22;1766;53.490;10.174;2023-05-07T05:52:32;17.10;44.50
3504;DHT22;1766;53.490;10.174;2023-05-07T05:54:34;17.00;44.40
3504;DHT22;1766;53.490;10.174;2023-05-07T05:56:36;17.00;44.40
3504;DHT22;1766;53.490;10.174;2023-05-07T05:58:38;17.00;44.40
3504;DHT22;1766;53.490;10.174;2023-05-07T06:00:42;17.00;44.40
3504;DHT22;1766;53.490;10.174;2023-05-07T06:02:44;17.10;44.50
3504;DHT22;1766;53.490;10.174;2023-05-07T06:04:47;17.10;44.50
3504;DHT22;1766;53.490;10.174;2023-05-07T06:06:48;17.10;44.40
3504;DHT22;1766;53.490;10.174;2023-05-07T06:08:50;17.20;44.40
3504;DHT22;1766;53.490;10.174;2023-05-07T06:10:52;17.20;44.30
3504;DHT22;1766;53.490;10.174;2023-05-07T06:12:54;17.20;44.20
3504;DHT22;1766;53.490;10.174;2023-05-07T06:14:55;17.80;44.60
3504;DHT22;1766;53.490;10.174;2023-05-07T06:16:58;17.20;44.10
3504;DHT22;1766;53.490;10.174;2023-05-07T06:19:00;17.30;44.10
3504;DHT22;1766;53.490;10.174;2023-05-07T06:21:02;17.20;44.10
3504;DHT22;1766;53.490;10.174;2023-05-07T06:23:04;17.30;44.30
3504;DHT22;1766;53.490;10.174;2023-05-07T06:25:06;17.40;44.30
3504;DHT22;1766;53.490;10.174;2023-05-07T06:27:09;17.40;44.30
3504;DHT22;1766;53.490;10.174;2023-05-07T06:29:10;17.40;44.20
3504;DHT22;1766;53.490;10.174;2023-05-07T06:31:13;17.40;44.20
3504;DHT22;1766;53.490;10.174;2023-05-07T06:33:17;17.40;44.30
3504;DHT22;1766;53.490;10.174;2023-05-07T06:35:20;17.40;44.20
3504;DHT22;1766;53.490;10.174;2023-05-07T06:37:22;17.40;44.20
3504;DHT22;1766;53.490;10.174;2023-05-07T06:39:23;17.50;44.10
3504;DHT22;1766;53.490;10.174;2023-05-07T06:41:25;17.50;44.20
3504;DHT22;1766;53.490;10.174;2023-05-07T06:43:27;17.50;44.10
3504;DHT22;1766;53.490;10.174;2023-05-07T06:45:29;17.60;44.10
3504;DHT22;1766;53.490;10.174;2023-05-07T06:47:30;17.50;43.80
3504;DHT22;1766;53.490;10.174;2023-05-07T06:49:34;17.60;44.00
3504;DHT22;1766;53.490;10.174;2023-05-07T06:51:35;17.50;43.90
3504;DHT22;1766;53.490;10.174;2023-05-07T06:53:37;17.60;43.90
3504;DHT22;1766;53.490;10.174;2023-05-07T06:55:39;17.70;43.80
3504;DHT22;1766;53.490;10.174;2023-05-07T06:57:42;17.70;43.70
3504;DHT22;1766;53.490;10.174;2023-05-07T06:59:43;17.70;43.70
3504;DHT22;1766;53.490;10.174;2023-05-07T07:01:45;17.70;43.60
3504;DHT22;1766;53.490;10.174;2023-05-07T07:03:47;17.70;43.60
3504;DHT22;1766;53.490;10.174;2023-05-07T07:05:52;17.70;43.60
3504;DHT22;1766;53.490;10.174;2023-05-07T07:07:54;17.80;43.60
3504;DHT22;1766;53.490;10.174;2023-05-07T07:09:56;17.80;43.50
3504;DHT22;1766;53.490;10.174;2023-05-07T07:11:57;17.80;43.40
3504;DHT22;1766;53.490;10.174;2023-05-07T07:13:59;17.90;43.40
3504;DHT22;1766;53.490;10.174;2023-05-07T07:16:01;17.90;43.40
3504;DHT22;1766;53.490;10.174;2023-05-07T07:18:04;17.90;43.40
3504;DHT22;1766;53.490;10.174;2023-05-07T07:20:07;18.00;43.40
3504;DHT22;1766;53.490;10.174;2023-05-07T07:22:10;18.00;43.40
3504;DHT22;1766;53.490;10.174;2023-05-07T07:24:13;18.00;43.20
3504;DHT22;1766;53.490;10.174;2023-05-07T07:26:19;18.00;43.20
3504;DHT22;1766;53.490;10.174;2023-05-07T07:28:21;18.00;43.20
3504;DHT22;1766;53.490;10.174;2023-05-07T07:30:23;18.10;43.20
3504;DHT22;1766;53.490;10.174;2023-05-07T07:32:26;18.10;43.10
3504;DHT22;1766;53.490;10.174;2023-05-07T07:34:28;18.20;43.20
3504;DHT22;1766;53.490;10.174;2023-05-07T07:36:30;18.20;43.00
3504;DHT22;1766;53.490;10.174;2023-05-07T07:38:33;18.30;43.10
3504;DHT22;1766;53.490;10.174;2023-05-07T07:40:35;18.40;43.10
3504;DHT22;1766;53.490;10.174;2023-05-07T07:42:37;18.40;43.00
3504;DHT22;1766;53.490;10.174;2023-05-07T07:44:39;18.40;42.90
3504;DHT22;1766;53.490;10.174;2023-05-07T07:46:41;18.40;42.80
3504;DHT22;1766;53.490;10.174;2023-05-07T07:48:42;18.50;42.90
3504;DHT22;1766;53.490;10.174;2023-05-07T07:50:44;18.50;42.80
3504;DHT22;1766;53.490;10.174;2023-05-07T07:52:46;18.50;42.70
3504;DHT22;1766;53.490;10.174;2023-05-07T07:54:50;18.60;42.80
3504;DHT22;1766;53.490;10.174;2023-05-07T07:56:52;18.50;42.50
3504;DHT22;1766;53.490;10.174;2023-05-07T07:58:54;18.60;42.60
3504;DHT22;1766;53.490;10.174;2023-05-07T08:00:56;18.60;42.40
3504;DHT22;1766;53.490;10.174;2023-05-07T08:02:58;18.50;42.30
3504;DHT22;1766;53.490;10.174;2023-05-07T08:04:59;18.60;42.40
3504;DHT22;1766;53.490;10.174;2023-05-07T08:07:02;18.60;42.40
3504;DHT22;1766;53.490;10.174;2023-05-07T08:09:04;18.60;42.30
3504;DHT22;1766;53.490;10.174;2023-05-07T08:11:07;18.60;42.30
3504;DHT22;1766;53.490;10.174;2023-05-07T08:13:09;18.70;42.40
3504;DHT22;1766;53.490;10.174;2023-05-07T08:15:11;18.80;42.50
3504;DHT22;1766;53.490;10.174;2023-05-07T08:17:13;18.80;42.30
3504;DHT22;1766;53.490;10.174;2023-05-07T08:19:16;18.90;42.30
3504;DHT22;1766;53.490;10.174;2023-05-07T08:21:18;18.90;42.70
3504;DHT22;1766;53.490;10.174;2023-05-07T08:23:20;18.90;42.20
3504;DHT22;1766;53.490;10.174;2023-05-07T08:25:22;18.90;42.00
3504;DHT22;1766;53.490;10.174;2023-05-07T08:27:38;18.90;42.00
3504;DHT22;1766;53.490;10.174;2023-05-07T08:29:40;18.90;41.90
3504;DHT22;1766;53.490;10.174;2023-05-07T08:31:41;18.90;41.70
3504;DHT22;1766;53.490;10.174;2023-05-07T08:33:43;18.90;41.60
3504;DHT22;1766;53.490;10.174;2023-05-07T08:35:45;18.90;41.60
3504;DHT22;1766;53.490;10.174;2023-05-07T08:37:47;18.80;41.60
3504;DHT22;1766;53.490;10.174;2023-05-07T08:39:48;18.90;41.80
3504;DHT22;1766;53.490;10.174;2023-05-07T08:41:52;18.90;41.80
3504;DHT22;1766;53.490;10.174;2023-05-07T08:43:59;18.90;41.90
3504;DHT22;1766;53.490;10.174;2023-05-07T08:46:04;19.00;41.90
3504;DHT22;1766;53.490;10.174;2023-05-07T08:48:09;19.10;41.80
3504;DHT22;1766;53.490;10.174;2023-05-07T08:50:16;19.10;41.70
3504;DHT22;1766;53.490;10.174;2023-05-07T08:52:17;19.10;41.70
3504;DHT22;1766;53.490;10.174;2023-05-07T08:54:21;19.20;41.70
3504;DHT22;1766;53.490;10.174;2023-05-07T08:56:23;19.20;41.50
3504;DHT22;1766;53.490;10.174;2023-05-07T08:58:25;19.20;41.20
3504;DHT22;1766;53.490;10.174;2023-05-07T09:00:28;19.30;41.30
3504;DHT22;1766;53.490;10.174;2023-05-07T09:02:30;19.30;41.20
3504;DHT22;1766;53.490;10.174;2023-05-07T09:04:32;19.40;41.30
3504;DHT22;1766;53.490;10.174;2023-05-07T09:06:34;19.50;41.30
3504;DHT22;1766;53.490;10.174;2023-05-07T09:08:37;19.60;41.20
3504;DHT22;1766;53.490;10.174;2023-05-07T09:10:38;19.70;41.10
3504;DHT22;1766;53.490;10.174;2023-05-07T09:12:40;19.70;40.70
3504;DHT22;1766;53.490;10.174;2023-05-07T09:14:42;19.80;40.70
3504;DHT22;1766;53.490;10.174;2023-05-07T09:16:46;19.80;40.70
3504;DHT22;1766;53.490;10.174;2023-05-07T09:18:51;19.90;40.60
3504;DHT22;1766;53.490;10.174;2023-05-07T09:20:55;19.90;40.50
3504;DHT22;1766;53.490;10.174;2023-05-07T09:22:56;20.00;40.40
3504;DHT22;1766;53.490;10.174;2023-05-07T09:24:58;20.10;40.50
3504;DHT22;1766;53.490;10.174;2023-05-07T09:27:00;20.00;40.20
3504;DHT22;1766;53.490;10.174;2023-05-07T09:29:02;20.00;40.20
3504;DHT22;1766;53.490;10.174;2023-05-07T09:31:04;20.10;40.10
3504;DHT22;1766;53.490;10.174;2023-05-07T09:33:07;20.00;39.90
3504;DHT22;1766;53.490;10.174;2023-05-07T09:35:15;19.90;39.70
3504;DHT22;1766;53.490;10.174;2023-05-07T09:37:17;19.80;39.90
3504;DHT22;1766;53.490;10.174;2023-05-07T09:39:19;19.90;39.90
3504;DHT22;1766;53.490;10.174;2023-05-07T09:41:21;19.90;40.00
3504;DHT22;1766;53.490;10.174;2023-05-07T09:43:23;19.90;39.90
3504;DHT22;1766;53.490;10.174;2023-05-07T09:45:25;19.90;39.90
3504;DHT22;1766;53.490;10.174;2023-05-07T09:47:32;20.90;40.70
3504;DHT22;1766;53.490;10.174;2023-05-07T09:49:39;20.00;40.00
3504;DHT22;1766;53.490;10.174;2023-05-07T09:51:47;20.10;40.00
3504;DHT22;1766;53.490;10.174;2023-05-07T09:53:52;20.10;40.00
3504;DHT22;1766;53.490;10.174;2023-05-07T09:55:55;20.30;40.10
3504;DHT22;1766;53.490;10.174;2023-05-07T09:57:58;20.50;40.10
3504;DHT22;1766;53.490;10.174;2023-05-07T10:00:03;20.70;40.10
3504;DHT22;1766;53.490;10.174;2023-05-07T10:02:06;20.80;40.30
3504;DHT22;1766;53.490;10.174;2023-05-07T10:04:09;20.80;39.60
3504;DHT22;1766;53.490;10.174;2023-05-07T10:06:13;21.00;39.60
3504;DHT22;1766;53.490;10.174;2023-05-07T10:08:16;21.00;39.40
3504;DHT22;1766;53.490;10.174;2023-05-07T10:10:20;20.90;39.20
3504;DHT22;1766;53.490;10.174;2023-05-07T10:12:37;21.10;39.30
3504;DHT22;1766;53.490;10.174;2023-05-07T10:14:40;21.10;38.90
3504;DHT22;1766;53.490;10.174;2023-05-07T10:16:43;21.20;38.90
3504;DHT22;1766;53.490;10.174;2023-05-07T10:18:46;21.20;38.80
3504;DHT22;1766;53.490;10.174;2023-05-07T10:20:51;21.20;38.80
3504;DHT22;1766;53.490;10.174;2023-05-07T10:22:56;21.30;38.80
3504;DHT22;1766;53.490;10.174;2023-05-07T10:25:00;21.30;38.70
3504;DHT22;1766;53.490;10.174;2023-05-07T10:27:07;21.50;38.80
3504;DHT22;1766;53.490;10.174;2023-05-07T10:29:15;21.50;38.50
3504;DHT22;1766;53.490;10.174;2023-05-07T10:31:35;21.60;38.30
3504;DHT22;1766;53.490;10.174;2023-05-07T10:33:45;21.60;38.10
3504;DHT22;1766;53.490;10.174;2023-05-07T10:35:48;21.80;38.10
3504;DHT22;1766;53.490;10.174;2023-05-07T10:37:51;21.80;37.80
3504;DHT22;1766;53.490;10.174;2023-05-07T10:39:54;21.80;37.70
3504;DHT22;1766;53.490;10.174;2023-05-07T10:42:07;21.90;37.70
3504;DHT22;1766;53.490;10.174;2023-05-07T10:44:09;21.70;37.50
3504;DHT22;1766;53.490;10.174;2023-05-07T10:46:14;21.90;37.40
3504;DHT22;1766;53.490;10.174;2023-05-07T10:48:18;22.00;37.60
3504;DHT22;1766;53.490;10.174;2023-05-07T10:50:20;22.00;37.30
3504;DHT22;1766;53.490;10.174;2023-05-07T10:52:24;22.10;37.20
3504;DHT22;1766;53.490;10.174;2023-05-07T10:54:27;22.10;37.10
3504;DHT22;1766;53.490;10.174;2023-05-07T10:56:30;22.10;37.10
3504;DHT22;1766;53.490;10.174;2023-05-07T10:58:31;22.10;37.10
3504;DHT22;1766;53.490;10.174;2023-05-07T11:00:42;22.20;37.10
3504;DHT22;1766;53.490;10.174;2023-05-07T11:03:04;22.10;36.80
3504;DHT22;1766;53.490;10.174;2023-05-07T11:05:22;22.20;36.90
3504;DHT22;1766;53.490;10.174;2023-05-07T11:07:26;22.30;36.70
3504;DHT22;1766;53.490;10.174;2023-05-07T11:09:53;22.40;36.60
3504;DHT22;1766;53.490;10.174;2023-05-07T11:11:57;22.40;36.50
3504;DHT22;1766;53.490;10.174;2023-05-07T11:13:59;22.50;36.40
3504;DHT22;1766;53.490;10.174;2023-05-07T11:16:01;22.60;36.30
3504;DHT22;1766;53.490;10.174;2023-05-07T11:18:04;22.60;36.30
3504;DHT22;1766;53.490;10.174;2023-05-07T11:20:06;22.70;36.30
3504;DHT22;1766;53.490;10.174;2023-05-07T11:22:36;22.80;36.10
3504;DHT22;1766;53.490;10.174;2023-05-07T11:24:40;22.80;35.80
3504;DHT22;1766;53.490;10.174;2023-05-07T11:26:46;22.90;35.80
3504;DHT22;1766;53.490;10.174;2023-05-07T11:28:51;23.00;35.80
3504;DHT22;1766;53.490;10.174;2023-05-07T11:30:53;23.00;35.70
3504;DHT22;1766;53.490;10.174;2023-05-07T11:32:55;23.10;35.80
3504;DHT22;1766;53.490;10.174;2023-05-07T11:34:59;23.30;35.70
3504;DHT22;1766;53.490;10.174;2023-05-07T11:37:01;23.40;35.50
3504;DHT22;1766;53.490;10.174;2023-05-07T11:39:04;23.60;35.50
3504;DHT22;1766;53.490;10.174;2023-05-07T11:41:06;23.80;35.30
3504;DHT22;1766;53.490;10.174;2023-05-07T11:43:12;24.10;35.20
3504;DHT22;1766;53.490;10.174;2023-05-07T11:45:23;24.40;34.90
3504;DHT22;1766;53.490;10.174;2023-05-07T11:47:26;24.60;34.60
3504;DHT22;1766;53.490;10.174;2023-05-07T11:49:28;25.20;34.50
3504;DHT22;1766;53.490;10.174;2023-05-07T11:51:30;25.60;33.70
3504;DHT22;1766;53.490;10.174;2023-05-07T11:53:36;25.90;33.10
3504;DHT22;1766;53.490;10.174;2023-05-07T11:55:39;26.20;32.60
3504;DHT22;1766;53.490;10.174;2023-05-07T11:57:42;26.40;32.30
3504;DHT22;1766;53.490;10.174;2023-05-07T11:59:44;26.80;32.10
3504;DHT22;1766;53.490;10.174;2023-05-07T12:01:49;27.10;31.70
3504;DHT22;1766;53.490;10.174;2023-05-07T12:03:51;27.40;31.10
3504;DHT22;1766;53.490;10.174;2023-05-07T12:05:52;27.70;30.70
3504;DHT22;1766;53.490;10.174;2023-05-07T12:07:56;27.90;30.50
3504;DHT22;1766;53.490;10.174;2023-05-07T12:09:58;28.00;30.30
3504;DHT22;1766;53.490;10.174;2023-05-07T12:12:03;28.30;30.00
3504;DHT22;1766;53.490;10.174;2023-05-07T12:14:05;28.40;29.80
3504;DHT22;1766;53.490;10.174;2023-05-07T12:16:07;28.60;29.60
3504;DHT22;1766;53.490;10.174;2023-05-07T12:18:11;28.70;29.40
3504;DHT22;1766;53.490;10.174;2023-05-07T12:20:14;28.90;29.20
3504;DHT22;1766;53.490;10.174;2023-05-07T12:22:15;29.00;29.10
3504;DHT22;1766;53.490;10.174;2023-05-07T12:24:17;29.10;28.80
3504;DHT22;1766;53.490;10.174;2023-05-07T12:26:19;29.30;28.70
3504;DHT22;1766;53.490;10.174;2023-05-07T12:28:22;29.20;28.30
3504;DHT22;1766;53.490;10.174;2023-05-07T12:30:24;29.20;28.40
3504;DHT22;1766;53.490;10.174;2023-05-07T12:32:26;29.20;28.50
3504;DHT22;1766;53.490;10.174;2023-05-07T12:34:31;29.20;28.50
3504;DHT22;1766;53.490;10.174;2023-05-07T12:36:37;29.00;28.20
3504;DHT22;1766;53.490;10.174;2023-05-07T12:38:40;28.80;28.20
3504;DHT22;1766;53.490;10.174;2023-05-07T12:40:43;28.50;28.40
3504;DHT22;1766;53.490;10.174;2023-05-07T12:42:45;28.40;28.60
3504;DHT22;1766;53.490;10.174;2023-05-07T12:44:47;28.20;28.50
3504;DHT22;1766;53.490;10.174;2023-05-07T12:46:49;27.90;28.40
3504;DHT22;1766;53.490;10.174;2023-05-07T12:48:52;27.60;28.70
3504;DHT22;1766;53.490;10.174;2023-05-07T12:50:56;27.40;28.90
3504;DHT22;1766;53.490;10.174;2023-05-07T12:52:59;27.30;29.10
3504;DHT22;1766;53.490;10.174;2023-05-07T12:55:05;27.10;29.10
3504;DHT22;1766;53.490;10.174;2023-05-07T12:57:08;27.00;29.30
3504;DHT22;1766;53.490;10.174;2023-05-07T12:59:11;27.00;29.50
3504;DHT22;1766;53.490;10.174;2023-05-07T13:01:12;26.90;29.50
3504;DHT22;1766;53.490;10.174;2023-05-07T13:03:22;26.90;29.50
3504;DHT22;1766;53.490;10.174;2023-05-07T13:05:25;26.90;29.50
3504;DHT22;1766;53.490;10.174;2023-05-07T13:07:28;26.90;29.50
3504;DHT22;1766;53.490;10.174;2023-05-07T13:09:31;26.90;29.50
3504;DHT22;1766;53.490;10.174;2023-05-07T13:11:33;27.00;29.50